Time;durP1;ratioP1;P1;durP2;ratioP2;P2;SDS_P1;SDS_P2;PMS_P1;PMS_P2;Temp;Humidity;BMP_temperature;BMP_pressure;BME280_temperature;BME280_humidity;BME280_pressure;Samples;Min_cycle;Max_cycle;Signal;HPM_P1;HPM_P2
2023/05/28 00:02:08;;;;;;;8.70;5.07;;;;;;;16.13;44.88;96344.53;5009762;28;20176;-71
2023/05/28 00:04:33;;;;;;;10.90;6.00;;;;;;;16.14;44.83;96343.59;5009776;28;20203;-71
2023/05/28 00:06:59;;;;;;;11.37;6.40;;;;;;;16.07;44.72;96342.31;5009769;28;20454;-70
2023/05/28 00:09:24;;;;;;;16.67;6.63;;;;;;;16.02;45.06;96339.97;5011723;28;20211;-69
2023/05/28 00:11:50;;;;;;;13.13;6.30;;;;;;;16.07;45.55;96339.66;5008588;28;20225;-70
2023/05/28 00:14:15;;;;;;;13.80;5.37;;;;;;;16.02;45.49;96329.38;5009103;28;20172;-70
2023/05/28 00:16:43;;;;;;;8.40;5.97;;;;;;;16.12;44.95;96328.75;5010163;28;20204;-71
2023/05/28 00:19:09;;;;;;;11.10;5.53;;;;;;;15.95;45.40;96330.75;5008615;28;20247;-70
2023/05/28 00:21:35;;;;;;;10.63;5.93;;;;;;;15.86;45.66;96331.34;5026281;28;20442;-70
2023/05/28 00:24:00;;;;;;;6.00;5.23;;;;;;;15.88;45.73;96329.44;5019063;28;20180;-70
2023/05/28 00:26:26;;;;;;;12.20;5.80;;;;;;;15.86;45.92;96329.53;5019936;28;20438;-71
2023/05/28 00:28:52;;;;;;;9.73;5.73;;;;;;;15.92;45.95;96322.13;5017195;28;20191;-70
2023/05/28 00:31:17;;;;;;;8.93;5.40;;;;;;;15.91;45.73;96325.75;5024329;28;20176;-67
2023/05/28 00:33:45;;;;;;;9.60;6.17;;;;;;;15.94;45.46;96331.66;5019333;28;20411;-70
2023/05/28 00:36:15;;;;;;;10.03;5.43;;;;;;;15.83;45.43;96324.47;5021191;28;20204;-70
2023/05/28 00:38:41;;;;;;;6.70;4.83;;;;;;;15.95;45.18;96317.50;5023308;28;20531;-72
2023/05/28 00:41:06;;;;;;;13.70;6.50;;;;;;;15.94;44.99;96317.59;5020984;28;20423;-71
2023/05/28 00:43:32;;;;;;;10.50;6.00;;;;;;;15.93;45.05;96318.56;5021779;28;20187;-70
2023/05/28 00:46:03;;;;;;;11.80;6.80;;;;;;;15.88;45.22;96324.16;5023997;28;20285;-68
2023/05/28 00:48:30;;;;;;;6.10;5.47;;;;;;;15.90;44.84;96318.75;5019029;28;20242;-67
2023/05/28 00:50:58;;;;;;;9.47;5.33;;;;;;;15.90;44.73;96310.81;5016328;28;20411;-67
2023/05/28 00:53:25;;;;;;;11.07;6.13;;;;;;;15.99;44.67;96312.84;5015187;28;20429;-71
2023/05/28 00:55:50;;;;;;;10.57;5.17;;;;;;;15.88;44.62;96314.41;5013954;28;20427;-69
2023/05/28 00:58:16;;;;;;;7.30;5.23;;;;;;;15.84;44.56;96312.91;5015400;28;20458;-69
2023/05/28 01:00:45;;;;;;;7.83;5.33;;;;;;;15.76;44.84;96323.16;5014143;28;20196;-70
2023/05/28 01:03:10;;;;;;;9.23;5.37;;;;;;;15.45;45.77;96311.91;5014534;28;20658;-68
2023/05/28 01:05:36;;;;;;;9.93;5.70;;;;;;;15.46;45.75;96310.09;5013477;28;20466;-71
2023/05/28 01:08:03;;;;;;;29.37;8.27;;;;;;;15.47;45.71;96314.44;5014331;28;20701;-70
2023/05/28 01:10:31;;;;;;;10.17;5.80;;;;;;;15.52;45.41;96308.84;5015045;28;20667;-68
2023/05/28 01:12:58;;;;;;;12.43;5.20;;;;;;;15.42;45.53;96312.09;5013075;28;20435;-67
2023/05/28 01:15:25;;;;;;;15.03;5.77;;;;;;;15.43;45.85;96310.31;5014253;28;20419;-69
2023/05/28 01:18:04;;;;;;;17.20;5.53;;;;;;;15.31;45.65;96308.47;5014214;28;20438;-67
2023/05/28 01:20:30;;;;;;;12.30;5.80;;;;;;;15.24;45.92;96308.84;5012774;28;20479;-66
2023/05/28 01:23:03;;;;;;;10.37;5.20;;;;;;;15.36;45.78;96311.66;5013543;28;20439;-69
2023/05/28 01:25:30;;;;;;;9.27;5.93;;;;;;;15.37;45.47;96306.25;5014126;28;20931;-70
2023/05/28 01:27:55;;;;;;;8.50;5.50;;;;;;;15.32;45.80;96305.72;5014202;28;20443;-67
2023/05/28 01:30:21;;;;;;;10.50;5.30;;;;;;;15.33;45.26;96298.63;5014583;28;20435;-69
2023/05/28 01:32:47;;;;;;;7.50;6.03;;;;;;;15.29;45.25;96294.50;5014138;28;20176;-70
2023/05/28 01:35:13;;;;;;;9.47;4.97;;;;;;;15.26;45.27;96298.19;5011149;28;20212;-68
2023/05/28 01:37:46;;;;;;;9.53;5.00;;;;;;;15.40;44.93;96300.78;5012922;28;20192;-67
2023/05/28 01:40:14;;;;;;;8.20;5.00;;;;;;;15.37;44.82;96294.84;5011808;28;20247;-67
2023/05/28 01:42:40;;;;;;;13.17;5.17;;;;;;;15.42;44.46;96295.38;5013489;28;21461;-67
2023/05/28 01:45:07;;;;;;;7.77;5.30;;;;;;;15.29;44.56;96297.97;5013724;28;20423;-70
2023/05/28 01:47:34;;;;;;;21.57;6.90;;;;;;;15.25;44.64;96296.47;5016350;28;20466;-70
2023/05/28 01:50:00;;;;;;;7.53;4.27;;;;;;;14.97;45.36;96303.50;5012927;28;20451;-68
2023/05/28 01:52:25;;;;;;;10.13;5.00;;;;;;;15.02;45.53;96301.44;5012618;28;20867;-69
2023/05/28 01:54:51;;;;;;;6.20;5.07;;;;;;;15.06;45.24;96304.72;5011331;28;20561;-69
2023/05/28 01:57:16;;;;;;;9.60;6.23;;;;;;;15.10;45.45;96302.75;5012280;28;20206;-69
2023/05/28 01:59:42;;;;;;;6.10;4.60;;;;;;;15.13;44.67;96302.56;5010549;28;20208;-67
2023/05/28 02:02:08;;;;;;;15.43;5.10;;;;;;;14.95;45.19;96300.13;5012955;28;20243;-69
2023/05/28 02:04:33;;;;;;;13.33;5.97;;;;;;;15.02;44.90;96306.72;5017162;28;20813;-68
2023/05/28 02:06:59;;;;;;;10.80;5.00;;;;;;;14.97;45.17;96298.22;5012417;28;20207;-68
2023/05/28 02:09:24;;;;;;;10.50;5.30;;;;;;;14.76;45.71;96289.88;5013425;28;20551;-69
2023/05/28 02:11:50;;;;;;;9.63;5.23;;;;;;;14.69;45.45;96292.97;5013064;28;20188;-70
2023/05/28 02:14:15;;;;;;;5.77;4.70;;;;;;;14.87;45.42;96291.00;5013976;28;20220;-71
2023/05/28 02:16:52;;;;;;;10.73;5.47;;;;;;;14.84;45.24;96292.03;5011414;28;20524;-69
2023/05/28 02:19:18;;;;;;;11.40;5.20;;;;;;;14.78;45.27;96295.03;5009554;28;20203;-68
2023/05/28 02:21:44;;;;;;;10.47;5.17;;;;;;;14.77;45.39;96299.47;5012012;28;20438;-69
2023/05/28 02:24:10;;;;;;;12.27;5.00;;;;;;;14.64;45.99;96297.69;5011091;28;20423;-69
2023/05/28 02:26:35;;;;;;;9.73;5.53;;;;;;;14.78;45.55;96295.88;5011730;28;20662;-68
2023/05/28 02:29:01;;;;;;;10.90;5.43;;;;;;;14.76;45.80;96295.16;5011599;28;20824;-72
2023/05/28 02:31:27;;;;;;;11.60;4.67;;;;;;;14.78;45.70;96295.03;5011304;28;20279;-68
2023/05/28 02:33:52;;;;;;;11.30;5.53;;;;;;;14.69;45.74;96298.25;5012112;28;20645;-67
2023/05/28 02:36:18;;;;;;;12.67;5.00;;;;;;;14.83;45.66;96292.97;5012044;28;20200;-70
2023/05/28 02:38:43;;;;;;;9.00;5.20;;;;;;;14.75;45.36;96289.97;5012625;28;20637;-69
2023/05/28 02:41:09;;;;;;;15.37;5.90;;;;;;;14.68;46.21;96291.28;5016705;28;20618;-69
2023/05/28 02:43:35;;;;;;;8.57;5.33;;;;;;;14.11;47.49;96294.72;5009459;28;20183;-68
2023/05/28 02:46:01;;;;;;;27.27;7.87;;;;;;;14.29;47.03;96292.72;5013133;28;20301;-70
2023/05/28 02:48:27;;;;;;;15.53;5.73;;;;;;;14.21;46.87;96289.72;5016235;28;21298;-71
2023/05/28 02:50:52;;;;;;;12.57;5.50;;;;;;;14.46;47.23;96286.44;5016445;28;20180;-69
2023/05/28 02:53:22;;;;;;;19.17;6.23;;;;;;;14.52;46.32;96286.91;5014642;28;20645;-68
2023/05/28 02:55:48;;;;;;;10.37;5.10;;;;;;;14.25;47.11;96280.69;5014575;28;20667;-70
2023/05/28 02:58:14;;;;;;;9.80;5.37;;;;;;;14.23;47.38;96285.19;5013824;28;20498;-68
2023/05/28 03:00:40;;;;;;;23.83;6.23;;;;;;;14.25;47.37;96283.31;5013310;28;20779;-70
2023/05/28 03:03:06;;;;;;;20.60;5.47;;;;;;;14.49;47.05;96289.75;5014241;28;20652;-69
2023/05/28 03:05:32;;;;;;;10.57;5.80;;;;;;;14.24;47.35;96293.00;5013758;28;20520;-71
2023/05/28 03:08:00;;;;;;;9.40;5.17;;;;;;;14.31;46.98;96294.34;5015190;28;20184;-68
2023/05/28 03:10:26;;;;;;;9.60;5.80;;;;;;;14.09;47.59;96293.94;5014783;28;20415;-70
2023/05/28 03:12:51;;;;;;;13.43;5.57;;;;;;;14.09;47.72;96300.06;5015231;28;20950;-71
2023/05/28 03:15:17;;;;;;;22.43;5.93;;;;;;;14.29;46.94;96296.25;5014246;28;20188;-69
2023/05/28 03:17:42;;;;;;;7.50;4.77;;;;;;;14.14;47.63;96292.72;5014553;28;20212;-70
2023/05/28 03:20:10;;;;;;;9.67;5.30;;;;;;;14.25;47.07;96302.66;5011810;28;20255;-70
2023/05/28 03:22:36;;;;;;;9.97;6.53;;;;;;;14.31;46.87;96307.53;5012590;28;20550;-71
2023/05/28 03:25:05;;;;;;;12.10;5.50;;;;;;;14.43;47.03;96303.31;5012832;28;20426;-70
2023/05/28 03:27:31;;;;;;;9.73;5.13;;;;;;;14.25;47.48;96304.44;5013722;28;20939;-69
2023/05/28 03:29:56;;;;;;;8.20;5.27;;;;;;;14.25;46.85;96305.28;5014281;28;20438;-69
2023/05/28 03:32:22;;;;;;;11.90;6.17;;;;;;;14.38;46.60;96305.38;5014532;28;20254;-69
2023/05/28 03:34:47;;;;;;;10.47;5.87;;;;;;;14.24;47.07;96310.66;5013819;28;20188;-69
2023/05/28 03:37:12;;;;;;;9.70;5.10;;;;;;;14.27;47.43;96316.59;5015292;28;20208;-68
2023/05/28 03:39:38;;;;;;;18.50;6.23;;;;;;;14.21;46.90;96314.31;5013332;28;20259;-71
2023/05/28 03:42:05;;;;;;;10.00;4.53;;;;;;;14.32;46.73;96313.69;5013407;28;20190;-70
2023/05/28 03:44:30;;;;;;;10.50;6.40;;;;;;;14.34;46.60;96314.44;5013581;28;20188;-70
2023/05/28 03:46:56;;;;;;;16.57;6.30;;;;;;;14.13;47.14;96309.50;5013399;28;20845;-70
2023/05/28 03:49:21;;;;;;;8.10;5.27;;;;;;;14.01;47.14;96306.72;5012865;28;20607;-70
2023/05/28 03:51:47;;;;;;;8.87;6.00;;;;;;;14.37;47.16;96314.25;5012929;28;20179;-69
2023/05/28 03:54:12;;;;;;;7.03;5.63;;;;;;;14.39;46.62;96313.22;5014363;28;20184;-70
2023/05/28 03:56:38;;;;;;;9.60;5.60;;;;;;;14.59;46.21;96314.66;5013888;28;20239;-69
2023/05/28 03:59:03;;;;;;;15.03;5.80;;;;;;;14.78;45.63;96311.72;5014292;28;20574;-70
2023/05/28 04:01:29;;;;;;;11.23;5.57;;;;;;;14.49;46.41;96316.16;5014290;28;20180;-70
2023/05/28 04:03:55;;;;;;;7.10;5.17;;;;;;;14.77;46.22;96312.69;5014308;28;20188;-72
2023/05/28 04:06:21;;;;;;;12.03;5.67;;;;;;;14.91;45.76;96303.91;5012087;28;20222;-70
2023/05/28 04:08:47;;;;;;;9.60;6.30;;;;;;;15.11;45.14;96310.56;5013799;28;20450;-70
2023/05/28 04:11:13;;;;;;;8.03;5.10;;;;;;;15.17;45.42;96317.28;5012656;28;20176;-71
2023/05/28 04:13:40;;;;;;;15.60;8.40;;;;;;;15.12;45.12;96314.06;5013576;28;20801;-70
2023/05/28 04:16:06;;;;;;;17.97;7.17;;;;;;;15.21;44.59;96321.41;5014574;28;20211;-71
2023/05/28 04:18:31;;;;;;;20.70;6.50;;;;;;;14.96;45.28;96312.41;5014748;28;20443;-70
2023/05/28 04:20:57;;;;;;;13.90;5.80;;;;;;;15.34;44.45;96317.03;5014867;28;20477;-71
2023/05/28 04:23:22;;;;;;;7.43;5.27;;;;;;;15.35;44.43;96308.16;5015196;28;20617;-67
2023/05/28 04:25:47;;;;;;;18.23;5.60;;;;;;;15.41;44.44;96314.84;5014797;28;20673;-68
2023/05/28 04:28:14;;;;;;;9.83;4.70;;;;;;;15.71;43.36;96317.34;5013479;28;20303;-70
2023/05/28 04:30:39;;;;;;;11.90;5.63;;;;;;;15.74;43.67;96314.47;5014377;28;20339;-71
2023/05/28 04:33:06;;;;;;;8.20;5.27;;;;;;;15.77;43.48;96306.31;5018292;28;20494;-69
2023/05/28 04:35:31;;;;;;;6.90;4.67;;;;;;;15.59;43.91;96307.50;5017533;28;20168;-71
2023/05/28 04:37:57;;;;;;;17.37;6.97;;;;;;;16.01;43.05;96303.00;5018577;28;20449;-70
2023/05/28 04:40:22;;;;;;;12.53;5.50;;;;;;;16.09;42.96;96304.19;5017734;28;20208;-67
2023/05/28 04:42:48;;;;;;;7.90;5.20;;;;;;;16.17;42.52;96301.00;5018229;28;20180;-70
2023/05/28 04:45:13;;;;;;;13.47;6.40;;;;;;;16.12;42.40;96316.38;5018580;28;20234;-70
2023/05/28 04:47:39;;;;;;;6.57;5.30;;;;;;;16.05;42.54;96315.09;5018968;28;20218;-70
2023/05/28 04:50:06;;;;;;;16.77;5.93;;;;;;;16.10;42.66;96320.91;5019473;28;20169;-68
2023/05/28 04:52:35;;;;;;;6.60;4.53;;;;;;;16.35;42.09;96316.63;5018243;28;20175;-72
2023/05/28 04:55:06;;;;;;;7.70;4.90;;;;;;;16.44;42.50;96315.97;5019224;28;20490;-71
2023/05/28 04:57:32;;;;;;;8.30;5.30;;;;;;;16.85;41.45;96322.91;5019184;28;20457;-69
2023/05/28 04:59:58;;;;;;;12.67;5.50;;;;;;;16.64;41.67;96312.78;5018320;28;20482;-70
2023/05/28 05:02:24;;;;;;;11.03;5.60;;;;;;;16.89;41.32;96308.44;5018522;28;20415;-70
2023/05/28 05:04:49;;;;;;;10.13;4.73;;;;;;;16.86;41.00;96320.13;5016656;28;20423;-71
2023/05/28 05:07:16;;;;;;;14.17;5.90;;;;;;;16.51;41.79;96311.94;5016119;28;20192;-69
2023/05/28 05:09:42;;;;;;;6.13;4.93;;;;;;;17.05;40.88;96313.53;5013909;28;20179;-72
2023/05/28 05:12:08;;;;;;;13.67;5.60;;;;;;;17.12;40.47;96315.63;5017504;28;20423;-70
2023/05/28 05:14:34;;;;;;;9.30;5.50;;;;;;;16.67;41.22;96315.22;5016778;28;20176;-71
2023/05/28 05:17:00;;;;;;;12.53;5.37;;;;;;;16.85;41.01;96320.25;5015777;28;20474;-69
2023/05/28 05:19:26;;;;;;;10.33;4.90;;;;;;;16.82;40.89;96323.09;5015443;28;20474;-70
2023/05/28 05:21:52;;;;;;;6.27;4.43;;;;;;;16.95;41.25;96323.94;5015907;28;20176;-71
2023/05/28 05:24:17;;;;;;;10.40;5.33;;;;;;;17.23;40.47;96317.50;5017109;28;20506;-68
2023/05/28 05:26:43;;;;;;;8.77;4.97;;;;;;;17.03;40.54;96323.38;5018988;28;20916;-69
2023/05/28 05:29:08;;;;;;;10.10;4.83;;;;;;;17.14;40.62;96312.88;5019038;28;20172;-70
2023/05/28 05:31:34;;;;;;;9.63;6.13;;;;;;;17.23;40.05;96312.22;5018313;28;20246;-70
2023/05/28 05:34:00;;;;;;;7.53;5.20;;;;;;;17.29;40.09;96310.91;5018144;28;20172;-67
2023/05/28 05:36:26;;;;;;;10.00;4.50;;;;;;;17.16;40.45;96318.06;5020038;28;20614;-70
2023/05/28 05:38:51;;;;;;;11.27;5.77;;;;;;;17.27;39.67;96321.66;5019347;28;20207;-71
2023/05/28 05:41:17;;;;;;;9.13;6.07;;;;;;;16.83;41.10;96325.63;5019752;28;20431;-71
2023/05/28 05:43:42;;;;;;;9.17;5.67;;;;;;;16.97;41.59;96327.31;5018220;28;20184;-71
2023/05/28 05:46:08;;;;;;;9.53;6.23;;;;;;;16.94;40.13;96327.56;5020200;28;20809;-70
2023/05/28 05:48:33;;;;;;;8.57;5.10;;;;;;;17.37;40.05;96319.19;5020625;28;20172;-70
2023/05/28 05:51:00;;;;;;;9.53;6.70;;;;;;;17.32;40.15;96326.63;5019682;28;20287;-70
2023/05/28 05:53:26;;;;;;;17.20;6.23;;;;;;;17.31;40.50;96327.56;5016664;28;20283;-69
2023/05/28 05:55:52;;;;;;;11.50;4.90;;;;;;;17.66;39.84;96326.81;5018466;28;20479;-70
2023/05/28 05:58:18;;;;;;;8.33;4.93;;;;;;;17.49;39.93;96330.69;5018826;28;20184;-70
2023/05/28 06:00:44;;;;;;;19.70;8.93;;;;;;;17.60;39.63;96327.25;5016417;28;20211;-71
2023/05/28 06:03:09;;;;;;;11.80;6.30;;;;;;;17.73;39.37;96325.41;5015453;28;20663;-71
2023/05/28 06:05:35;;;;;;;9.90;5.47;;;;;;;17.08;39.98;96335.38;5013027;28;20419;-68
2023/05/28 06:08:02;;;;;;;6.67;5.37;;;;;;;17.18;40.67;96335.56;5012125;28;20168;-70
2023/05/28 06:10:29;;;;;;;6.70;4.97;;;;;;;17.68;39.65;96332.84;5011494;28;20182;-70
2023/05/28 06:12:55;;;;;;;16.20;6.50;;;;;;;17.87;39.89;96330.56;5012791;28;21190;-68
2023/05/28 06:15:21;;;;;;;12.43;6.50;;;;;;;17.77;39.74;96332.19;5013761;28;20423;-68
2023/05/28 06:17:47;;;;;;;14.40;6.27;;;;;;;17.82;39.64;96335.38;5013528;28;20455;-69
2023/05/28 06:20:13;;;;;;;7.83;5.57;;;;;;;18.14;39.31;96324.13;5014239;28;20212;-69
2023/05/28 06:22:39;;;;;;;13.40;6.20;;;;;;;17.99;39.69;96321.69;5015543;28;20467;-69
2023/05/28 06:25:06;;;;;;;13.80;7.00;;;;;;;18.46;38.82;96323.53;5013901;28;20446;-69
2023/05/28 06:27:32;;;;;;;19.53;7.77;;;;;;;18.63;38.43;96318.56;5015753;28;20442;-70
2023/05/28 06:29:57;;;;;;;10.80;6.10;;;;;;;18.05;39.50;96322.16;5015673;28;20482;-69
2023/05/28 06:32:23;;;;;;;16.70;6.77;;;;;;;18.52;38.83;96312.41;5016865;28;20183;-67
2023/05/28 06:34:48;;;;;;;9.80;6.47;;;;;;;17.98;39.72;96324.47;5015485;28;20276;-70
2023/05/28 06:37:14;;;;;;;11.40;6.10;;;;;;;18.89;37.99;96321.06;5014558;28;20204;-69
2023/05/28 06:39:39;;;;;;;8.43;5.63;;;;;;;18.37;39.28;96323.25;5014008;28;20214;-70
2023/05/28 06:42:06;;;;;;;12.50;6.27;;;;;;;17.99;40.36;96320.84;5015711;28;20526;-70
2023/05/28 06:44:33;;;;;;;13.50;6.73;;;;;;;18.32;39.65;96317.44;5014749;28;20176;-70
2023/05/28 06:46:58;;;;;;;7.00;6.23;;;;;;;18.06;39.93;96323.88;5011170;28;20459;-71
2023/05/28 06:49:23;;;;;;;14.40;6.03;;;;;;;18.19;39.75;96328.16;5011418;28;20458;-68
2023/05/28 06:51:49;;;;;;;14.00;6.30;;;;;;;18.97;38.87;96318.66;5014010;28;20176;-69
2023/05/28 06:54:14;;;;;;;11.20;5.60;;;;;;;18.97;38.78;96320.47;5014507;28;20184;-70
2023/05/28 06:56:40;;;;;;;12.50;6.67;;;;;;;18.15;40.13;96320.53;5018183;28;20283;-68
2023/05/28 06:59:05;;;;;;;14.83;6.30;;;;;;;19.38;37.69;96316.31;5019091;28;20299;-70
2023/05/28 07:01:31;;;;;;;13.47;6.27;;;;;;;19.67;37.50;96314.78;5010680;28;20762;-69
2023/05/28 07:03:56;;;;;;;15.30;6.10;;;;;;;20.08;36.68;96315.88;5004690;28;20180;-70
2023/05/28 07:06:22;;;;;;;13.30;6.10;;;;;;;19.86;37.36;96318.63;5018937;28;20200;-70
2023/05/28 07:08:48;;;;;;;9.33;6.30;;;;;;;19.72;38.10;96326.91;5016161;28;20202;-66
2023/05/28 07:11:13;;;;;;;10.50;6.53;;;;;;;19.78;37.51;96318.44;5014948;28;20527;-70
2023/05/28 07:13:39;;;;;;;9.03;6.20;;;;;;;19.43;37.97;96327.44;5017795;28;20184;-71
2023/05/28 07:16:06;;;;;;;11.50;6.10;;;;;;;19.30;38.37;96324.03;5013481;28;20557;-70
2023/05/28 07:18:31;;;;;;;13.47;6.23;;;;;;;19.96;37.40;96322.25;5022550;28;20219;-69
2023/05/28 07:20:57;;;;;;;8.73;6.10;;;;;;;19.69;38.24;96319.19;5028815;28;21260;-69
2023/05/28 07:23:23;;;;;;;10.03;5.40;;;;;;;19.81;38.08;96323.50;5017705;28;20185;-69
2023/05/28 07:25:49;;;;;;;14.63;7.60;;;;;;;20.37;37.20;96309.94;5035131;28;20325;-70
2023/05/28 07:28:14;;;;;;;13.53;6.20;;;;;;;19.80;38.05;96320.00;5034402;28;20294;-68
2023/05/28 07:30:41;;;;;;;12.43;6.40;;;;;;;19.49;38.76;96316.31;5027743;28;20533;-69
2023/05/28 07:33:07;;;;;;;11.23;7.20;;;;;;;18.85;40.44;96318.75;5022785;28;20198;-68
2023/05/28 07:35:32;;;;;;;13.17;6.40;;;;;;;18.93;40.73;96314.53;5033712;28;20797;-71
2023/05/28 07:37:58;;;;;;;14.30;6.70;;;;;;;18.93;40.49;96321.66;5030578;28;20945;-70
2023/05/28 07:40:23;;;;;;;10.63;6.93;;;;;;;19.24;40.38;96317.41;5025207;28;20214;-69
2023/05/28 07:42:49;;;;;;;12.03;7.00;;;;;;;19.89;38.62;96313.06;5029953;28;20191;-69
2023/05/28 07:45:14;;;;;;;11.27;5.80;;;;;;;20.29;37.64;96312.38;5025467;28;20282;-70
2023/05/28 07:47:40;;;;;;;17.63;6.50;;;;;;;21.01;37.22;96306.22;5027512;28;20257;-70
2023/05/28 07:50:06;;;;;;;10.50;6.07;;;;;;;20.94;37.47;96311.25;5032122;28;20176;-70
2023/05/28 07:52:31;;;;;;;9.60;5.80;;;;;;;21.64;36.21;96308.72;5033805;28;20185;-69
2023/05/28 07:55:00;;;;;;;12.53;6.00;;;;;;;21.53;37.01;96307.00;5030016;28;20437;-71
2023/05/28 07:57:26;;;;;;;13.20;6.30;;;;;;;21.73;36.37;96297.19;5031055;28;20197;-71
2023/05/28 07:59:52;;;;;;;9.07;5.90;;;;;;;21.22;36.62;96308.84;5029518;28;20458;-70
2023/05/28 08:02:17;;;;;;;8.30;5.63;;;;;;;21.03;37.14;96300.78;5031287;28;20184;-69
2023/05/28 08:04:43;;;;;;;11.50;6.57;;;;;;;21.22;36.97;96303.50;5018974;28;20188;-70
2023/05/28 08:07:10;;;;;;;17.93;7.10;;;;;;;21.13;37.10;96314.97;5026949;28;20551;-71
2023/05/28 08:09:35;;;;;;;10.40;5.87;;;;;;;21.41;36.72;96300.06;5036434;28;20171;-69
2023/05/28 08:12:04;;;;;;;13.90;5.97;;;;;;;21.41;37.10;96301.91;5037787;28;20791;-72
2023/05/28 08:14:30;;;;;;;12.57;6.23;;;;;;;21.52;36.58;96289.28;5036321;28;20182;-69
2023/05/28 08:16:55;;;;;;;13.47;6.60;;;;;;;21.13;37.79;96301.66;5035277;28;20438;-71
2023/05/28 08:19:20;;;;;;;22.57;6.73;;;;;;;20.36;38.35;96305.56;5036131;28;20204;-69
2023/05/28 08:21:46;;;;;;;13.00;5.73;;;;;;;21.04;37.34;96302.44;5037146;28;20186;-69
2023/05/28 08:24:11;;;;;;;7.73;5.53;;;;;;;21.24;37.60;96304.22;5036210;28;20190;-71
2023/05/28 08:26:37;;;;;;;13.00;6.67;;;;;;;21.13;36.95;96302.47;5035148;28;20203;-70
2023/05/28 08:29:04;;;;;;;19.13;7.50;;;;;;;21.26;37.05;96304.94;5035870;28;20175;-69
2023/05/28 08:31:31;;;;;;;10.53;5.93;;;;;;;21.27;36.63;96298.59;5037438;28;20422;-68
2023/05/28 08:33:57;;;;;;;9.53;6.07;;;;;;;21.43;36.67;96295.44;5037176;28;20438;-69
2023/05/28 08:36:23;;;;;;;40.67;11.53;;;;;;;21.76;36.36;96288.06;5036608;28;20884;-68
2023/05/28 08:38:48;;;;;;;11.30;5.63;;;;;;;21.17;37.39;96295.06;5035543;28;20462;-71
2023/05/28 08:41:14;;;;;;;10.53;5.60;;;;;;;21.49;36.87;96289.53;5033576;28;20175;-69
2023/05/28 08:43:39;;;;;;;21.17;8.90;;;;;;;21.27;37.69;96292.44;5029774;28;20247;-69
2023/05/28 08:46:05;;;;;;;15.23;6.63;;;;;;;21.35;37.65;96287.22;5031726;28;20218;-69
2023/05/28 08:48:33;;;;;;;9.20;5.90;;;;;;;21.57;36.74;96286.22;5026753;28;20179;-69
2023/05/28 08:50:59;;;;;;;8.47;5.83;;;;;;;21.81;36.60;96290.31;5026060;28;20301;-69
2023/05/28 08:53:29;;;;;;;8.43;5.70;;;;;;;21.40;37.35;96290.38;5030164;28;20410;-68
2023/05/28 08:55:55;;;;;;;7.40;5.70;;;;;;;20.95;37.06;96293.41;5030894;28;20792;-67
2023/05/28 08:58:21;;;;;;;12.47;6.37;;;;;;;21.05;37.14;96293.47;5032576;28;20427;-68
2023/05/28 09:00:47;;;;;;;11.27;5.93;;;;;;;21.16;37.29;96285.34;5030119;28;20461;-69
2023/05/28 09:03:13;;;;;;;8.57;6.23;;;;;;;21.03;38.39;96284.75;5031433;28;20887;-69
2023/05/28 09:05:39;;;;;;;9.70;6.40;;;;;;;21.38;37.63;96278.09;5030707;28;20406;-70
2023/05/28 09:08:07;;;;;;;9.87;5.43;;;;;;;21.86;36.45;96275.53;5028329;28;20198;-70
2023/05/28 09:10:33;;;;;;;6.77;5.60;;;;;;;21.68;36.84;96275.38;5011664;28;20171;-70
2023/05/28 09:13:00;;;;;;;14.30;6.63;;;;;;;21.95;37.09;96272.03;5011987;28;20411;-71
2023/05/28 09:15:26;;;;;;;9.20;5.63;;;;;;;21.70;36.44;96281.44;5025543;28;20616;-70
2023/05/28 09:17:51;;;;;;;14.77;5.87;;;;;;;21.92;35.74;96274.13;5028563;28;20457;-71
2023/05/28 09:20:17;;;;;;;12.23;6.10;;;;;;;22.22;36.77;96272.31;5027219;28;20203;-70
2023/05/28 09:22:46;;;;;;;12.37;5.93;;;;;;;22.46;35.80;96272.69;5028383;28;20179;-71
2023/05/28 09:25:11;;;;;;;8.20;5.10;;;;;;;21.86;36.60;96269.38;5027299;28;20248;-69
2023/05/28 09:27:37;;;;;;;11.23;5.80;;;;;;;21.86;35.33;96264.84;5025319;28;20566;-71
2023/05/28 09:30:07;;;;;;;9.13;5.70;;;;;;;21.52;36.18;96277.75;5025161;28;20653;-69
2023/05/28 09:32:36;;;;;;;11.23;5.70;;;;;;;21.41;36.65;96280.56;5025322;28;20167;-69
2023/05/28 09:35:04;;;;;;;13.07;7.00;;;;;;;21.65;36.00;96282.84;5025093;28;20491;-68
2023/05/28 09:37:29;;;;;;;9.63;6.23;;;;;;;21.74;36.77;96277.50;5024264;28;20557;-69
2023/05/28 09:40:08;;;;;;;8.60;5.83;;;;;;;21.50;36.55;96277.91;5021506;28;20549;-69
2023/05/28 09:42:39;;;;;;;10.77;6.07;;;;;;;21.42;36.02;96275.06;5015813;28;20179;-70
2023/05/28 09:45:05;;;;;;;11.23;5.77;;;;;;;21.04;36.97;96267.75;5023849;28;21187;-69
2023/05/28 09:47:30;;;;;;;8.33;5.63;;;;;;;20.95;37.55;96277.41;5020513;28;20580;-70
2023/05/28 09:49:56;;;;;;;10.17;6.50;;;;;;;20.98;37.18;96268.31;5013522;28;20498;-69
2023/05/28 09:52:22;;;;;;;14.53;5.90;;;;;;;21.19;37.03;96266.41;5025354;28;20175;-70
2023/05/28 09:54:54;;;;;;;11.90;6.10;;;;;;;21.62;34.13;96259.94;5028698;28;20244;-70
2023/05/28 09:57:25;;;;;;;7.40;5.17;;;;;;;21.57;34.21;96251.50;5009206;28;21028;-71
2023/05/28 09:59:56;;;;;;;12.17;5.77;;;;;;;21.46;35.47;96262.28;5024857;28;20487;-69
2023/05/28 10:02:55;;;;;;;12.87;6.97;;;;;;;22.16;33.36;96257.69;5028147;28;20937;-70
2023/05/28 10:05:21;;;;;;;10.53;5.27;;;;;;;22.34;32.76;96250.63;5020276;28;20512;-69
2023/05/28 10:07:52;;;;;;;13.00;5.93;;;;;;;22.36;32.10;96250.50;5025020;28;20434;-68
2023/05/28 10:10:20;;;;;;;9.30;5.10;;;;;;;22.07;32.03;96256.69;5019434;28;20440;-70
2023/05/28 10:12:46;;;;;;;9.20;5.73;;;;;;;21.99;32.39;96246.72;5027598;28;20782;-69
2023/05/28 10:15:13;;;;;;;9.57;4.63;;;;;;;22.05;31.18;96255.16;5024443;28;20429;-70
2023/05/28 10:17:39;;;;;;;8.60;4.80;;;;;;;22.13;29.64;96255.28;5027774;28;20553;-70
2023/05/28 10:20:05;;;;;;;9.53;6.20;;;;;;;22.13;29.00;96258.78;5026556;28;20550;-70
2023/05/28 10:22:32;;;;;;;8.03;4.50;;;;;;;21.85;29.88;96257.84;5014965;28;20427;-70
2023/05/28 10:25:00;;;;;;;9.80;5.23;;;;;;;21.81;30.76;96255.59;5022640;28;20456;-70
2023/05/28 10:27:30;;;;;;;6.30;4.37;;;;;;;21.71;31.83;96256.44;5020378;28;20430;-70
2023/05/28 10:29:56;;;;;;;9.70;5.50;;;;;;;22.05;30.75;96261.34;5026291;28;20918;-70
2023/05/28 10:32:21;;;;;;;10.10;5.63;;;;;;;21.92;30.41;96250.06;5026934;28;20425;-69
2023/05/28 10:34:47;;;;;;;12.00;5.63;;;;;;;22.26;30.23;96263.88;5026097;28;20184;-69
2023/05/28 10:37:13;;;;;;;6.57;4.40;;;;;;;21.59;29.88;96260.22;5017405;28;20196;-69
2023/05/28 10:39:39;;;;;;;7.30;4.87;;;;;;;21.68;30.75;96256.69;5027486;28;20210;-69
2023/05/28 10:42:09;;;;;;;13.33;5.70;;;;;;;21.98;33.22;96257.53;5027908;28;20433;-69
2023/05/28 10:45:03;;;;;;;9.07;5.10;;;;;;;21.98;31.42;96250.38;5023777;28;20500;-69
2023/05/28 10:47:36;;;;;;;7.33;5.10;;;;;;;22.32;30.88;96251.75;5018710;28;20503;-68
2023/05/28 10:50:08;;;;;;;8.43;4.90;;;;;;;22.25;30.92;96250.66;5025990;28;20441;-70
2023/05/28 10:52:34;;;;;;;6.97;4.60;;;;;;;22.26;30.11;96244.34;5024606;28;20422;-69
2023/05/28 10:55:09;;;;;;;6.70;4.37;;;;;;;21.59;31.62;96254.88;5026716;28;20706;-70
2023/05/28 10:57:48;;;;;;;7.27;5.10;;;;;;;21.73;31.38;96241.09;5026406;28;20548;-69
2023/05/28 11:00:24;;;;;;;15.13;6.17;;;;;;;21.81;31.75;96231.53;5019490;28;20470;-68
2023/05/28 11:02:53;;;;;;;22.43;7.20;;;;;;;22.09;32.35;96235.19;5017760;28;20418;-69
2023/05/28 11:05:25;;;;;;;28.77;6.17;;;;;;;22.28;30.78;96224.50;5011692;28;20418;-68
2023/05/28 11:07:51;;;;;;;12.63;5.30;;;;;;;21.88;30.02;96243.34;4979417;28;20545;-68
2023/05/28 11:10:16;;;;;;;19.90;5.97;;;;;;;22.05;31.46;96239.97;5018000;28;20422;-69
2023/05/28 11:12:43;;;;;;;78.07;10.33;;;;;;;21.68;34.87;96234.47;5034796;28;20448;-70
2023/05/28 11:15:11;;;;;;;16.00;6.20;;;;;;;22.17;30.98;96228.13;5021091;28;20926;-68
2023/05/28 11:17:38;;;;;;;22.80;6.87;;;;;;;22.24;30.77;96231.09;5026107;28;20489;-70
2023/05/28 11:20:05;;;;;;;7.30;4.80;;;;;;;21.96;31.01;96235.47;5032814;28;20855;-69
2023/05/28 11:22:38;;;;;;;7.20;4.80;;;;;;;22.01;30.51;96230.53;5016557;28;20434;-69
2023/05/28 11:25:06;;;;;;;8.33;4.80;;;;;;;22.13;30.94;96224.03;5018718;28;20433;-70
2023/05/28 11:27:33;;;;;;;10.27;5.67;;;;;;;22.19;31.76;96219.97;5015520;28;21045;-68